Parshall, CO (80468)

12:01 PM MDT on September 20, 2014 (GMT -0600)
Green Mountain Reservoir | Change Station
CLOSE
Current Station
Personal Weather Station
Location: Heeney, CO
Elevation: 7979 ft
Nearby Weather Stations

Elev 7979 ft 39.87 °N, 106.31 °W | Updated 30 seconds ago

Clear
Clear
69.4 °F
Feels Like 69.4 °F
N
2.2
Wind Variable Wind from NE
Gusts 3.8 mph

Today
High -- | Low -- °F
--% Chance of Precip.
Yesterday
High -- | Low -- °F
Precip. -- in
6:50 AM 7:04 PM
Waning Crescent, 11% visible
Pressure 30.39 in
Visibility 10.0 miles
Clouds Clear
Dew Point 40 °F
Humidity 34%
Rainfall 0.00 in
Snow Depth 0 in , 0 in , 0 in
UV 8 out of 12
Pollen 6.70 out of 12
Air Quality Not available.
Flu Activity Not available.
METAR K20V 201755Z AUTO 00000KT 10SM CLR 21/03 A3039 RMK AO2

More Conditions Fewer Conditions

Pressure 30.39 in
Visibility 10.0 miles
Clouds Clear
Dew Point 40 °F
Humidity 34%
Rainfall 0.00 in
Snow Depth 0 in , 0 in , 0 in
UV 8 out of 12
Pollen 6.70 out of 12
Air Quality Not available.
Flu Activity Not available.
METAR K20V 201755Z AUTO 00000KT 10SM CLR 21/03 A3039 RMK AO2

More Conditions Fewer Conditions

10-Day Weather Forecast

Almanac

Astronomy

Sep. 20, 2014 Rise Set
Actual Time 6:50 AM MDT 7:04 PM MDT
Civil Twilight 6:23 AM MDT 7:31 PM MDT
Nautical Twilight 5:51 AM MDT 8:03 PM MDT
Astronomical Twilight 5:19 AM MDT 8:35 PM MDT
Moon 3:32 AM MDT 5:09 PM MDT
Length of Visible Light 13h 08m
Length of Day
12h 14m
Tomorrow will be 2m 36s shorter.
Waning Crescent, 11% of the Moon is Illuminated
Today
Waning Crescent
Sep 24
New
Oct 1
First Quarter
Oct 8
Full
Oct 15
Last Quarter

Today's Extremes

State Highs State Lows

Community

WunderPhotos

Upload Photos

1,754,921 photos uploaded!

WunderBlogs® & News

Nearby

Snow Depth

Station Depth Elevation
Upper San Juan 0 in 10130 ft
Fremont Pass 0 in 11400 ft
Phantom Valley 0 in 9030 ft
Rawah 8 in 9020 ft
Lizard Head Pass 0 in 10200 ft

Earthquake Activity

City Distance Mag. Time & Date
No recent earthquake activity has been reported nearby.
Minimum magnitude displayed is 2.5.

Coastal Water Temperatures

Place Temperature
No Stations Reporting

Nearby Weather Stations